createdAt,value
2018-11-07T00:02:21.043Z,11.73
2018-11-07T00:04:49.132Z,11.60
2018-11-07T00:07:17.037Z,13.67
2018-11-07T00:09:44.999Z,19.77
2018-11-07T00:12:13.032Z,14.03
2018-11-07T00:14:40.463Z,20.73
2018-11-07T00:17:08.407Z,15.00
2018-11-07T00:19:36.494Z,13.37
2018-11-07T00:22:04.851Z,14.43
2018-11-07T00:24:32.815Z,13.13
2018-11-07T00:27:00.789Z,14.10
2018-11-07T00:29:28.716Z,13.80
2018-11-07T00:31:56.847Z,15.60
2018-11-07T00:34:24.787Z,14.00
2018-11-07T00:36:52.756Z,16.80
2018-11-07T00:39:20.723Z,13.33
2018-11-07T00:41:48.764Z,14.10
2018-11-07T00:44:16.768Z,12.40
2018-11-07T00:46:44.692Z,13.20
2018-11-07T00:49:12.611Z,12.07
2018-11-07T00:51:40.581Z,20.47
2018-11-07T00:54:08.500Z,13.77
2018-11-07T00:56:36.439Z,15.67
2018-11-07T00:59:04.451Z,17.10
2018-11-07T01:01:32.420Z,12.93
2018-11-07T01:04:00.439Z,13.70
2018-11-07T01:06:28.470Z,12.90
2018-11-07T01:08:56.553Z,13.27
2018-11-07T01:11:25.071Z,18.77
2018-11-07T01:13:53.245Z,17.90
2018-11-07T01:16:21.203Z,20.27
2018-11-07T01:18:49.172Z,18.60
2018-11-07T01:21:17.302Z,15.37
2018-11-07T01:23:45.308Z,17.70
2018-11-07T01:26:13.657Z,26.03
2018-11-07T01:28:41.622Z,27.30
2018-11-07T01:31:09.653Z,21.60
2018-11-07T01:33:37.576Z,28.10
2018-11-07T01:36:05.515Z,21.07
2018-11-07T01:38:33.614Z,21.10
2018-11-07T01:41:01.536Z,21.73
2018-11-07T01:43:29.472Z,21.10
2018-11-07T01:45:57.448Z,19.40
2018-11-07T01:48:25.429Z,20.40
2018-11-07T01:50:53.380Z,16.20
2018-11-07T01:53:22.207Z,25.30
2018-11-07T01:55:50.245Z,18.80
2018-11-07T01:58:18.227Z,18.80
2018-11-07T02:00:46.143Z,16.00
2018-11-07T02:03:14.355Z,20.77
2018-11-07T02:05:42.332Z,19.50
2018-11-07T02:08:10.324Z,16.73
2018-11-07T02:10:38.337Z,29.67
2018-11-07T02:13:06.644Z,31.63
2018-11-07T02:15:34.686Z,29.40
2018-11-07T02:18:02.654Z,25.87
2018-11-07T02:20:30.568Z,18.27
2018-11-07T02:22:58.595Z,21.03
2018-11-07T02:25:26.553Z,17.80
2018-11-07T02:27:54.640Z,15.13
2018-11-07T02:30:22.708Z,21.53
2018-11-07T02:32:50.676Z,15.90
2018-11-07T02:35:18.578Z,16.93
2018-11-07T02:37:46.522Z,15.03
2018-11-07T02:40:14.585Z,19.93
2018-11-07T02:42:42.759Z,21.23
2018-11-07T02:45:10.661Z,18.60
2018-11-07T02:47:38.964Z,15.57
2018-11-07T02:50:07.338Z,18.33
2018-11-07T02:52:35.272Z,18.23
2018-11-07T02:55:03.278Z,18.03
2018-11-07T02:57:31.453Z,18.80
2018-11-07T02:59:59.427Z,18.47
2018-11-07T03:02:27.373Z,19.70
2018-11-07T03:04:55.295Z,18.30
2018-11-07T03:07:23.335Z,18.53
2018-11-07T03:09:51.291Z,17.27
2018-11-07T03:12:19.239Z,17.10
2018-11-07T03:14:46.725Z,16.43
2018-11-07T03:17:14.743Z,15.57
2018-11-07T03:19:42.652Z,16.60
2018-11-07T03:22:10.683Z,16.90
2018-11-07T03:24:38.597Z,14.20
2018-11-07T03:27:06.543Z,14.50
2018-11-07T03:29:34.593Z,13.90
2018-11-07T03:32:02.516Z,16.20
2018-11-07T03:34:30.570Z,18.83
2018-11-07T03:36:58.536Z,15.50
2018-11-07T03:39:26.505Z,13.80
2018-11-07T03:41:54.441Z,16.67
2018-11-07T03:44:22.359Z,13.10
2018-11-07T03:46:50.307Z,17.00
2018-11-07T03:49:18.270Z,13.30
2018-11-07T03:51:46.197Z,14.23
2018-11-07T03:54:14.211Z,11.67
2018-11-07T03:56:42.257Z,12.23
2018-11-07T03:59:10.335Z,10.47
2018-11-07T04:01:38.239Z,11.77
2018-11-07T04:04:06.156Z,12.63
2018-11-07T04:06:34.076Z,11.13
2018-11-07T04:09:03.322Z,12.53
2018-11-07T04:11:31.248Z,10.20
2018-11-07T04:13:58.867Z,12.27
2018-11-07T04:16:26.967Z,12.20
2018-11-07T04:18:54.906Z,15.57
2018-11-07T04:21:22.909Z,10.27
2018-11-07T04:23:54.994Z,11.13
2018-11-07T04:26:22.986Z,10.67
2018-11-07T04:28:50.912Z,13.50
2018-11-07T04:31:18.880Z,11.93
2018-11-07T04:33:46.852Z,11.50
2018-11-07T04:36:14.841Z,11.70
2018-11-07T04:38:42.837Z,11.90
2018-11-07T04:41:10.799Z,9.80
2018-11-07T04:43:38.743Z,12.00
2018-11-07T04:46:06.769Z,10.30
2018-11-07T04:48:34.842Z,10.73
2018-11-07T04:51:02.746Z,11.50
2018-11-07T04:53:30.677Z,11.07
2018-11-07T04:55:58.647Z,9.97
2018-11-07T04:58:26.547Z,11.03
2018-11-07T05:00:54.489Z,10.00
2018-11-07T05:03:22.495Z,10.87
2018-11-07T05:05:50.531Z,12.97
2018-11-07T05:08:18.553Z,13.53
2018-11-07T05:10:46.496Z,13.07
2018-11-07T05:13:13.992Z,10.27
2018-11-07T05:15:41.936Z,14.50
2018-11-07T05:18:10.041Z,14.50
2018-11-07T05:20:37.964Z,11.30
2018-11-07T05:23:05.917Z,9.63
2018-11-07T05:25:33.875Z,13.03
2018-11-07T05:28:01.988Z,11.17
2018-11-07T05:30:30.000Z,12.97
2018-11-07T05:32:57.985Z,12.50
2018-11-07T05:35:25.937Z,11.83
2018-11-07T05:37:53.987Z,13.47
2018-11-07T05:40:23.172Z,11.83
2018-11-07T05:42:51.132Z,12.70
2018-11-07T05:45:19.272Z,13.30
2018-11-07T05:47:47.175Z,16.60
2018-11-07T05:50:15.109Z,10.87
2018-11-07T05:52:43.039Z,11.97
2018-11-07T05:55:10.990Z,11.23
2018-11-07T05:57:39.177Z,12.73
2018-11-07T06:00:08.172Z,14.83
2018-11-07T06:02:36.093Z,11.43
2018-11-07T06:05:04.320Z,14.87
2018-11-07T06:07:32.232Z,14.90
2018-11-07T06:10:00.160Z,17.60
2018-11-07T06:12:28.098Z,14.53
2018-11-07T06:14:56.070Z,16.60
2018-11-07T06:17:25.043Z,18.93
2018-11-07T06:19:53.009Z,19.10
2018-11-07T06:22:20.962Z,17.43
2018-11-07T06:24:48.986Z,16.03
2018-11-07T06:27:16.831Z,15.53
2018-11-07T06:29:44.873Z,16.80
2018-11-07T06:32:12.792Z,17.10
2018-11-07T06:34:40.773Z,14.00
2018-11-07T06:37:08.725Z,13.63
2018-11-07T06:39:36.653Z,13.60
2018-11-07T06:42:05.304Z,12.50
2018-11-07T06:44:33.309Z,14.30
2018-11-07T06:47:01.219Z,12.63
2018-11-07T06:49:29.189Z,12.77
2018-11-07T06:51:57.172Z,30.97
2018-11-07T06:54:25.122Z,13.83
2018-11-07T06:56:53.200Z,11.70
2018-11-07T06:59:21.160Z,10.67
2018-11-07T07:01:49.131Z,13.70
2018-11-07T07:04:17.182Z,11.63
2018-11-07T07:06:45.145Z,17.93
2018-11-07T07:09:13.146Z,10.70
2018-11-07T07:11:41.096Z,17.60
2018-11-07T07:14:09.376Z,16.40
2018-11-07T07:16:37.304Z,13.53
2018-11-07T07:19:05.231Z,12.97
2018-11-07T07:21:33.229Z,12.10
2018-11-07T07:24:01.402Z,13.67
2018-11-07T07:26:29.471Z,12.73
2018-11-07T07:28:57.388Z,12.70
2018-11-07T07:31:25.295Z,16.23
2018-11-07T07:33:53.276Z,17.13
2018-11-07T07:36:21.187Z,13.87
2018-11-07T07:38:49.126Z,13.50
2018-11-07T07:41:17.155Z,14.17
2018-11-07T07:43:44.649Z,13.43
2018-11-07T16:00:26.111Z,13.30
2018-11-07T16:02:54.055Z,7.50
2018-11-07T16:05:21.988Z,7.63
2018-11-07T16:07:49.959Z,7.13
2018-11-07T16:10:18.009Z,10.10
2018-11-07T16:12:45.993Z,7.83
2018-11-07T16:15:15.106Z,8.53
2018-11-07T16:17:42.816Z,14.23
2018-11-07T16:20:11.827Z,7.93
2018-11-07T16:22:40.579Z,14.50
2018-11-07T16:25:08.760Z,15.63
2018-11-07T16:27:36.748Z,8.30
2018-11-07T16:30:06.232Z,7.30
2018-11-07T16:32:34.152Z,14.27
2018-11-07T16:35:02.104Z,14.70
2018-11-07T16:37:30.136Z,9.90
2018-11-07T16:39:58.077Z,19.57
2018-11-07T16:42:26.165Z,8.00
2018-11-07T16:44:54.133Z,16.13
2018-11-07T16:47:22.127Z,8.40
2018-11-07T16:49:50.109Z,14.90
2018-11-07T16:52:18.032Z,11.00
2018-11-07T16:54:46.077Z,7.80
2018-11-07T16:57:13.977Z,9.73
2018-11-07T16:59:41.996Z,14.80
2018-11-07T17:02:10.018Z,11.40
2018-11-07T17:04:38.014Z,6.47
2018-11-07T17:07:05.981Z,8.70
2018-11-07T17:09:33.844Z,14.43
2018-11-07T17:12:01.806Z,7.80
2018-11-07T17:14:29.732Z,9.30
2018-11-07T17:16:57.192Z,12.50
2018-11-07T17:19:25.132Z,6.80
2018-11-07T17:21:53.084Z,7.13
2018-11-07T17:24:21.031Z,6.53
2018-11-07T17:26:48.973Z,7.60
2018-11-07T17:29:16.820Z,6.90
2018-11-07T17:31:44.893Z,6.93
2018-11-07T17:34:13.054Z,6.87
2018-11-07T17:36:40.965Z,7.20
2018-11-07T17:39:08.956Z,6.40
2018-11-07T17:41:36.863Z,12.80
2018-11-07T17:44:04.783Z,9.63
2018-11-07T17:46:32.683Z,9.07
2018-11-07T17:49:00.635Z,7.13
2018-11-07T17:51:28.597Z,9.13
2018-11-07T17:53:56.564Z,7.13
2018-11-07T17:56:24.557Z,8.70
2018-11-07T17:58:52.569Z,7.20
2018-11-07T18:01:20.538Z,8.00
2018-11-07T18:03:48.515Z,6.87
2018-11-07T18:06:16.400Z,10.80
2018-11-07T18:08:44.399Z,6.70
2018-11-07T18:11:12.440Z,6.90
2018-11-07T18:13:40.420Z,9.20
2018-11-07T18:16:08.541Z,8.90
2018-11-07T18:18:36.885Z,10.17
2018-11-07T18:21:04.847Z,6.30
2018-11-07T18:23:32.880Z,10.07
2018-11-07T18:26:00.787Z,7.33
2018-11-07T18:28:28.756Z,6.07
2018-11-07T18:30:56.719Z,5.90
2018-11-07T18:33:24.684Z,6.50
2018-11-07T18:35:52.708Z,9.30
2018-11-07T18:38:20.532Z,4.70
2018-11-07T18:40:48.518Z,8.93
2018-11-07T18:43:16.593Z,7.73
2018-11-07T18:45:44.522Z,4.43
2018-11-07T18:48:13.025Z,6.33
2018-11-07T18:50:41.219Z,7.87
2018-11-07T18:53:09.645Z,5.67
2018-11-07T18:55:37.793Z,5.33
2018-11-07T18:58:05.946Z,5.47
2018-11-07T19:00:34.004Z,4.93
2018-11-07T19:03:01.962Z,4.53
2018-11-07T19:05:30.149Z,4.33
2018-11-07T19:07:58.203Z,3.00
2018-11-07T19:10:26.248Z,8.33
2018-11-07T19:12:54.263Z,3.83
2018-11-07T19:15:22.192Z,3.33
2018-11-07T19:17:50.929Z,3.43
2018-11-07T19:20:18.885Z,4.30
2018-11-07T19:22:46.875Z,2.57
2018-11-07T19:25:16.215Z,3.50
2018-11-07T19:27:44.185Z,3.80
2018-11-07T19:30:13.965Z,7.60
2018-11-07T19:32:42.584Z,6.00
2018-11-07T19:35:11.856Z,6.50
2018-11-07T19:37:39.988Z,3.55
2018-11-07T19:40:09.131Z,5.27
2018-11-07T19:42:37.122Z,6.73
2018-11-07T19:45:06.276Z,5.00
2018-11-07T19:47:34.471Z,3.40
2018-11-07T19:50:02.424Z,7.03
2018-11-07T19:52:30.373Z,4.00
2018-11-07T19:54:58.364Z,4.83
2018-11-07T19:57:26.231Z,6.63
2018-11-07T19:59:54.171Z,3.83
2018-11-07T20:02:22.092Z,3.77
2018-11-07T20:04:50.628Z,3.55
2018-11-07T20:07:18.693Z,3.23
2018-11-07T20:09:46.665Z,2.93
2018-11-07T20:12:14.706Z,3.20
2018-11-07T20:14:42.710Z,3.20
2018-11-07T20:17:10.311Z,3.20
2018-11-07T20:19:38.161Z,4.03
2018-11-07T20:22:06.072Z,4.87
2018-11-07T20:24:33.680Z,5.00
2018-11-07T20:27:01.640Z,4.00
2018-11-07T20:29:29.604Z,5.60
2018-11-07T20:31:57.560Z,18.73
2018-11-07T20:34:25.797Z,19.13
2018-11-07T20:36:53.893Z,38.10
2018-11-07T20:39:21.823Z,8.03
2018-11-07T20:41:49.923Z,5.77
2018-11-07T20:44:17.751Z,7.80
2018-11-07T20:46:45.720Z,5.40
2018-11-07T20:49:13.680Z,6.90
2018-11-07T20:51:41.707Z,6.27
2018-11-07T20:54:09.613Z,6.80
2018-11-07T20:56:38.038Z,8.37
2018-11-07T20:59:06.083Z,8.37
2018-11-07T21:01:34.113Z,8.30
2018-11-07T21:04:02.132Z,8.70
2018-11-07T21:06:30.244Z,7.67
2018-11-07T21:08:58.280Z,9.10
2018-11-07T21:11:26.325Z,11.00
2018-11-07T21:13:54.468Z,8.97
2018-11-07T21:16:22.480Z,9.77
2018-11-07T21:18:50.416Z,8.17
2018-11-07T21:21:18.358Z,8.87
2018-11-07T21:23:46.373Z,8.60
2018-11-07T21:26:14.341Z,6.97
2018-11-07T21:28:42.292Z,12.07
2018-11-07T21:31:10.316Z,13.57
2018-11-07T21:33:38.252Z,8.40
2018-11-07T21:36:06.288Z,9.53
2018-11-07T21:38:34.206Z,11.47
2018-11-07T21:41:02.162Z,7.87
2018-11-07T21:43:30.080Z,7.13
2018-11-07T21:45:58.102Z,12.00
2018-11-07T21:48:26.039Z,11.30
2018-11-07T21:50:53.964Z,10.13
2018-11-07T21:53:21.903Z,10.67
2018-11-07T21:55:49.840Z,8.50
2018-11-07T21:58:17.388Z,11.33
2018-11-07T22:00:46.212Z,7.53
2018-11-07T22:03:14.612Z,7.87
2018-11-07T22:05:42.568Z,7.17
2018-11-07T22:08:11.474Z,13.33
2018-11-07T22:10:39.605Z,10.13
2018-11-07T22:13:07.611Z,10.00
2018-11-07T22:15:35.620Z,10.00
2018-11-07T22:18:03.091Z,7.43
2018-11-07T22:20:31.196Z,8.30
2018-11-07T22:22:59.211Z,9.97
2018-11-07T22:25:28.156Z,8.03
2018-11-07T22:27:56.151Z,7.13
2018-11-07T22:30:24.092Z,7.67
2018-11-07T22:32:52.088Z,10.90
2018-11-07T22:35:20.033Z,8.77
2018-11-07T22:37:47.996Z,6.60
2018-11-07T22:40:17.129Z,9.90
2018-11-07T22:42:45.098Z,8.53
2018-11-07T22:45:14.241Z,7.10
2018-11-07T22:47:43.451Z,9.77
2018-11-07T22:50:17.580Z,5.70
2018-11-07T22:52:47.106Z,8.23
2018-11-07T22:55:15.859Z,6.47
2018-11-07T22:57:45.049Z,5.00
2018-11-07T23:00:20.508Z,6.03
2018-11-07T23:02:50.578Z,6.20
2018-11-07T23:05:22.698Z,6.03
2018-11-07T23:10:25.198Z,7.13
2018-11-07T23:12:53.135Z,6.80
2018-11-07T23:15:26.773Z,8.37
2018-11-07T23:17:54.233Z,8.23
2018-11-07T23:20:22.210Z,6.50
2018-11-07T23:22:50.190Z,8.30
2018-11-07T23:25:18.140Z,9.70
2018-11-07T23:27:46.423Z,9.27
2018-11-07T23:30:14.408Z,7.23
2018-11-07T23:32:42.372Z,9.93
2018-11-07T23:35:10.331Z,10.40
2018-11-07T23:37:38.252Z,13.00
2018-11-07T23:40:06.373Z,12.90
2018-11-07T23:42:34.486Z,11.80
